Time;durP1;ratioP1;P1;durP2;ratioP2;P2;SDS_P1;SDS_P2;PMS_P1;PMS_P2;Temp;Humidity;BMP_temperature;BMP_pressure;BME280_temperature;BME280_humidity;BME280_pressure;Samples;Min_cycle;Max_cycle;Signal;HPM_P1;HPM_P2
2022/09/02 00:01:01;;;;;;;5.15;2.38;;;15.80;99.90;;;;;;4127875;28;20096;-65
2022/09/02 00:03:03;;;;;;;6.63;2.20;;;15.80;99.90;;;;;;4130712;28;20614;-64
2022/09/02 00:05:05;;;;;;;4.20;2.35;;;15.80;99.90;;;;;;4130629;28;20089;-64
2022/09/02 00:07:06;;;;;;;5.32;2.70;;;15.80;99.90;;;;;;4130098;28;20426;-67
2022/09/02 00:09:10;;;;;;;2.55;2.35;;;15.80;99.90;;;;;;4130969;28;20046;-64
2022/09/02 00:11:18;;;;;;;3.30;1.95;;;15.80;99.90;;;;;;4130124;28;20050;-64
2022/09/02 00:13:20;;;;;;;3.15;2.33;;;15.80;99.90;;;;;;4130968;28;20046;-63
2022/09/02 00:15:21;;;;;;;4.10;2.20;;;15.80;99.90;;;;;;4129808;28;20022;-64
2022/09/02 00:17:23;;;;;;;3.47;2.70;;;15.80;99.90;;;;;;4130931;28;20030;-64
2022/09/02 00:19:25;;;;;;;3.08;2.17;;;15.80;99.90;;;;;;4130166;28;20035;-64
2022/09/02 00:21:26;;;;;;;2.58;1.85;;;15.90;99.90;;;;;;4130972;28;20091;-63
2022/09/02 00:23:28;;;;;;;4.30;2.20;;;15.80;99.90;;;;;;4129612;28;20058;-64
2022/09/02 00:25:29;;;;;;;2.80;2.30;;;15.80;99.90;;;;;;4131029;28;20051;-64
2022/09/02 00:27:30;;;;;;;2.38;1.98;;;15.80;99.90;;;;;;4129542;28;20030;-65
2022/09/02 00:29:31;;;;;;;3.88;2.17;;;15.80;99.90;;;;;;4130512;28;20085;-64
2022/09/02 00:31:32;;;;;;;3.58;2.25;;;15.80;99.90;;;;;;4129542;28;20104;-63
2022/09/02 00:33:34;;;;;;;3.80;2.28;;;15.80;99.90;;;;;;4130660;28;20034;-63
2022/09/02 00:35:35;;;;;;;2.38;2.17;;;15.70;99.90;;;;;;4129834;28;20030;-64
2022/09/02 00:37:37;;;;;;;4.97;2.10;;;15.70;99.90;;;;;;4130088;28;20405;-64
2022/09/02 00:39:39;;;;;;;3.22;2.30;;;15.70;99.90;;;;;;4129979;28;20061;-64
2022/09/02 00:41:42;;;;;;;3.15;2.17;;;15.70;99.90;;;;;;4129415;28;20573;-64
2022/09/02 00:44:02;;;;;;;4.13;2.25;;;15.70;99.90;;;;;;4130082;28;20760;-64
2022/09/02 00:46:04;;;;;;;3.13;2.08;;;15.70;99.90;;;;;;4129619;28;20030;-64
2022/09/02 00:48:05;;;;;;;3.92;2.40;;;15.70;99.90;;;;;;4130162;28;20483;-64
2022/09/02 00:50:10;;;;;;;6.07;2.60;;;15.70;99.90;;;;;;4130068;28;20046;-68
2022/09/02 00:52:22;;;;;;;2.25;2.05;;;15.70;99.90;;;;;;4130371;28;20089;-63
2022/09/02 00:54:25;;;;;;;2.70;1.80;;;15.70;99.90;;;;;;4129255;28;20026;-63
2022/09/02 00:56:29;;;;;;;5.22;2.35;;;15.70;99.90;;;;;;4130188;28;20422;-63
2022/09/02 00:58:33;;;;;;;2.40;2.20;;;15.70;99.90;;;;;;4128869;28;20089;-64
2022/09/02 01:00:38;;;;;;;3.25;1.73;;;15.60;99.90;;;;;;4130141;28;20092;-64
2022/09/02 01:02:41;;;;;;;2.38;2.17;;;15.70;99.90;;;;;;4129107;28;20081;-63
2022/09/02 01:04:45;;;;;;;2.75;2.30;;;15.70;99.90;;;;;;4130306;28;20483;-65
2022/09/02 01:06:47;;;;;;;1.90;1.75;;;15.60;99.90;;;;;;4128972;28;20026;-63
2022/09/02 01:08:59;;;;;;;2.25;1.98;;;15.70;99.90;;;;;;4130361;28;20072;-63
2022/09/02 01:11:02;;;;;;;4.00;1.83;;;15.60;99.90;;;;;;4128806;28;20449;-64
2022/09/02 01:13:07;;;;;;;2.80;2.03;;;15.70;99.90;;;;;;4129091;28;20035;-63
2022/09/02 01:15:11;;;;;;;1.77;1.67;;;15.60;99.90;;;;;;4128798;28;20030;-63
2022/09/02 01:17:15;;;;;;;8.25;2.20;;;15.60;99.90;;;;;;4129998;28;20081;-63
2022/09/02 01:19:22;;;;;;;2.70;1.73;;;15.60;99.90;;;;;;4129089;28;20096;-64
2022/09/02 01:21:23;;;;;;;1.55;1.45;;;15.70;99.90;;;;;;4130370;28;20621;-63
2022/09/02 01:23:27;;;;;;;2.20;1.67;;;15.70;99.90;;;;;;4128932;28;20069;-63
2022/09/02 01:25:32;;;;;;;1.80;1.50;;;15.60;99.90;;;;;;4129968;28;20149;-65
2022/09/02 01:27:33;;;;;;;1.67;1.58;;;15.70;99.90;;;;;;4127857;28;20034;-63
2022/09/02 01:29:34;;;;;;;1.77;1.58;;;15.60;99.90;;;;;;4129316;28;20038;-63
2022/09/02 01:31:35;;;;;;;3.13;1.52;;;15.60;99.90;;;;;;4129122;28;20034;-65
2022/09/02 01:33:37;;;;;;;3.15;1.80;;;15.60;99.90;;;;;;4129243;28;20446;-63
2022/09/02 01:35:39;;;;;;;2.75;1.90;;;15.60;99.90;;;;;;4129700;28;20527;-63
2022/09/02 01:37:41;;;;;;;5.57;1.45;;;15.60;99.90;;;;;;4128719;28;20026;-63
2022/09/02 01:39:42;;;;;;;5.38;1.42;;;15.50;99.90;;;;;;4129701;28;20085;-63
2022/09/02 01:41:44;;;;;;;1.85;1.38;;;15.50;99.90;;;;;;4128637;28;20038;-64
2022/09/02 01:43:45;;;;;;;1.77;1.63;;;15.40;99.90;;;;;;4129397;28;20101;-64
2022/09/02 01:45:48;;;;;;;3.13;1.45;;;15.50;99.90;;;;;;4128382;28;20088;-64
2022/09/02 01:47:49;;;;;;;2.63;1.42;;;15.50;99.90;;;;;;4129680;28;20073;-63
2022/09/02 01:49:51;;;;;;;2.15;1.25;;;15.40;99.90;;;;;;4128672;28;20046;-63
2022/09/02 01:51:55;;;;;;;1.90;1.70;;;15.40;99.90;;;;;;4129714;28;20427;-64
2022/09/02 01:53:56;;;;;;;1.55;1.45;;;15.30;99.90;;;;;;4128447;28;20093;-63
2022/09/02 01:55:58;;;;;;;1.77;1.67;;;15.30;99.90;;;;;;4129520;28;20026;-63
2022/09/02 01:57:59;;;;;;;2.90;1.38;;;15.20;99.90;;;;;;4128291;28;20105;-62
2022/09/02 02:00:02;;;;;;;2.65;1.35;;;15.20;99.90;;;;;;4129282;28;20089;-63
2022/09/02 02:02:04;;;;;;;1.73;1.20;;;15.20;99.90;;;;;;4128286;28;20038;-63
2022/09/02 02:04:05;;;;;;;4.60;1.55;;;15.10;99.90;;;;;;4128638;28;20080;-63
2022/09/02 02:06:10;;;;;;;2.53;1.00;;;15.10;99.90;;;;;;4128794;28;20030;-63
2022/09/02 02:08:11;;;;;;;1.83;1.27;;;15.10;99.90;;;;;;4128364;28;20065;-64
2022/09/02 02:10:15;;;;;;;2.28;1.33;;;15.10;99.90;;;;;;4128808;28;20027;-63
2022/09/02 02:12:17;;;;;;;1.98;1.70;;;15.10;99.90;;;;;;4127972;28;20034;-64
2022/09/02 02:14:18;;;;;;;3.13;1.63;;;15.10;99.90;;;;;;4129224;28;20034;-63
2022/09/02 02:16:19;;;;;;;2.42;1.50;;;15.00;99.90;;;;;;4128081;28;20034;-63
2022/09/02 02:18:20;;;;;;;1.27;1.17;;;15.00;99.90;;;;;;4129022;28;20080;-64
2022/09/02 02:20:22;;;;;;;3.58;1.77;;;15.10;99.90;;;;;;4128019;28;20022;-63
2022/09/02 02:22:23;;;;;;;3.50;1.10;;;15.10;99.90;;;;;;4129124;28;20096;-63
2022/09/02 02:24:25;;;;;;;2.30;1.40;;;15.10;99.90;;;;;;4127520;28;20030;-63
2022/09/02 02:26:27;;;;;;;1.10;1.10;;;15.10;99.90;;;;;;4128884;28;20360;-63
2022/09/02 02:28:29;;;;;;;4.75;1.30;;;15.10;99.90;;;;;;4127501;28;20077;-66
2022/09/02 02:30:31;;;;;;;1.63;1.13;;;15.10;99.90;;;;;;4127600;28;20101;-69
2022/09/02 02:32:32;;;;;;;2.15;1.23;;;15.10;99.90;;;;;;4127819;28;20030;-69
2022/09/02 02:34:34;;;;;;;1.27;1.17;;;15.10;99.90;;;;;;4128452;28;20054;-68
2022/09/02 02:36:36;;;;;;;1.85;1.10;;;15.10;99.90;;;;;;4127823;28;20081;-63
2022/09/02 02:38:38;;;;;;;2.40;1.08;;;15.10;99.90;;;;;;4127083;28;20070;-64
2022/09/02 02:40:39;;;;;;;5.18;1.50;;;15.10;99.90;;;;;;4128119;28;20082;-64
2022/09/02 02:42:40;;;;;;;5.13;1.48;;;15.10;99.90;;;;;;4127586;28;20061;-62
2022/09/02 02:44:42;;;;;;;2.10;0.85;;;15.10;99.90;;;;;;4128119;28;20097;-66
2022/09/02 02:46:43;;;;;;;1.83;1.08;;;15.10;99.90;;;;;;4127575;28;20050;-65
2022/09/02 02:48:44;;;;;;;4.43;1.20;;;15.10;99.90;;;;;;4128732;28;20085;-66
2022/09/02 02:50:45;;;;;;;2.25;1.10;;;15.10;99.90;;;;;;4127740;28;20084;-68
2022/09/02 02:52:47;;;;;;;1.10;0.85;;;15.10;99.90;;;;;;4128662;28;20077;-66
2022/09/02 02:54:49;;;;;;;1.95;1.00;;;15.10;99.90;;;;;;4127297;28;20093;-62
2022/09/02 02:56:50;;;;;;;1.83;0.82;;;15.10;99.90;;;;;;4127527;28;20073;-64
2022/09/02 02:58:51;;;;;;;1.60;1.20;;;15.00;99.90;;;;;;4127264;28;20042;-63
2022/09/02 03:00:53;;;;;;;1.83;0.90;;;15.00;99.90;;;;;;4128496;28;20035;-63
2022/09/02 03:03:00;;;;;;;2.60;0.93;;;15.00;99.90;;;;;;4127357;28;20084;-63
2022/09/02 03:05:04;;;;;;;1.90;0.80;;;15.00;99.90;;;;;;4128648;28;20112;-63
2022/09/02 03:07:05;;;;;;;2.67;0.80;;;15.00;99.90;;;;;;4127707;28;20046;-62
2022/09/02 03:09:06;;;;;;;2.42;0.80;;;15.00;99.90;;;;;;4128169;28;20080;-62
2022/09/02 03:11:08;;;;;;;1.65;0.98;;;15.00;99.90;;;;;;4127842;28;20088;-64
2022/09/02 03:13:10;;;;;;;1.98;1.00;;;14.90;99.90;;;;;;4127374;28;20050;-63
2022/09/02 03:15:12;;;;;;;3.40;0.70;;;14.90;99.90;;;;;;4128024;28;20069;-62
2022/09/02 03:17:14;;;;;;;1.67;0.50;;;14.90;99.90;;;;;;4126058;28;20042;-63
2022/09/02 03:19:15;;;;;;;2.35;1.13;;;14.90;99.90;;;;;;4128350;28;20026;-63
2022/09/02 03:21:17;;;;;;;0.63;0.63;;;14.90;99.90;;;;;;4127413;28;20034;-62
2022/09/02 03:23:18;;;;;;;0.80;0.80;;;14.90;99.90;;;;;;4128350;28;20054;-62
2022/09/02 03:25:20;;;;;;;1.80;0.85;;;14.90;99.90;;;;;;4127402;28;20034;-61
2022/09/02 03:27:21;;;;;;;0.90;0.90;;;14.90;99.90;;;;;;4128072;28;20418;-62
2022/09/02 03:29:23;;;;;;;1.73;0.85;;;14.90;99.90;;;;;;4126858;28;20035;-62
2022/09/02 03:31:26;;;;;;;0.75;0.75;;;14.90;99.90;;;;;;4128143;28;20034;-63
2022/09/02 03:33:27;;;;;;;1.05;0.65;;;14.90;99.90;;;;;;4126913;28;20419;-63
2022/09/02 03:35:29;;;;;;;1.50;0.93;;;14.90;99.90;;;;;;4129299;28;20030;-62
2022/09/02 03:37:30;;;;;;;2.63;1.33;;;14.90;99.90;;;;;;4130491;28;20093;-62
2022/09/02 03:39:31;;;;;;;0.90;0.90;;;14.90;99.90;;;;;;4131200;28;20513;-63
2022/09/02 03:41:33;;;;;;;3.45;0.70;;;14.80;99.90;;;;;;4130335;28;20453;-63
2022/09/02 03:43:34;;;;;;;1.35;0.60;;;14.80;99.90;;;;;;4130600;28;20102;-63
2022/09/02 03:45:37;;;;;;;1.58;0.98;;;14.90;99.90;;;;;;4130920;28;20075;-63
2022/09/02 03:47:42;;;;;;;1.88;0.73;;;14.90;99.90;;;;;;4130005;28;20450;-63
2022/09/02 03:49:44;;;;;;;1.00;0.73;;;14.90;99.90;;;;;;4130925;28;20085;-65
2022/09/02 03:51:45;;;;;;;2.17;0.50;;;14.90;99.90;;;;;;4130675;28;20093;-64
2022/09/02 03:53:47;;;;;;;4.32;1.38;;;14.80;99.90;;;;;;4131424;28;20034;-63
2022/09/02 03:55:48;;;;;;;13.50;1.23;;;14.80;99.90;;;;;;4129985;28;20487;-63
2022/09/02 03:57:49;;;;;;;0.93;0.63;;;14.90;99.90;;;;;;4131043;28;20022;-69
2022/09/02 03:59:50;;;;;;;1.20;0.70;;;14.80;99.90;;;;;;4129650;28;20426;-69
2022/09/02 04:01:52;;;;;;;3.28;0.60;;;14.90;99.90;;;;;;4131175;28;20054;-66
2022/09/02 04:03:53;;;;;;;1.75;0.80;;;14.90;99.90;;;;;;4129760;28;20046;-63
2022/09/02 04:05:54;;;;;;;2.22;0.52;;;14.80;99.90;;;;;;4130897;28;20085;-64
2022/09/02 04:07:56;;;;;;;1.77;1.10;;;14.80;99.90;;;;;;4129987;28;20093;-63
2022/09/02 04:09:57;;;;;;;1.02;0.70;;;14.90;99.90;;;;;;4130631;28;20034;-63
2022/09/02 04:11:58;;;;;;;1.77;0.77;;;14.90;99.90;;;;;;4129887;28;20026;-65
2022/09/02 04:14:00;;;;;;;1.50;0.73;;;14.90;99.90;;;;;;4121863;28;20023;-63
2022/09/02 04:16:09;;;;;;;1.75;0.68;;;14.90;99.90;;;;;;4113582;28;20074;-63
2022/09/02 04:18:10;;;;;;;0.82;0.65;;;14.80;99.90;;;;;;4113706;28;20483;-63
2022/09/02 04:20:12;;;;;;;1.42;0.80;;;14.90;99.90;;;;;;4114299;28;20554;-63
2022/09/02 04:22:13;;;;;;;5.55;0.73;;;14.80;99.90;;;;;;4114150;28;20039;-63
2022/09/02 04:24:15;;;;;;;1.02;0.70;;;14.90;99.90;;;;;;4113875;28;20027;-62
2022/09/02 04:26:17;;;;;;;3.60;0.60;;;14.80;99.90;;;;;;4113186;28;20019;-63
2022/09/02 04:28:18;;;;;;;4.43;0.70;;;14.80;99.90;;;;;;4115071;28;20035;-61
2022/09/02 04:30:20;;;;;;;3.80;1.30;;;14.80;99.90;;;;;;4112977;28;20039;-61
2022/09/02 04:32:21;;;;;;;2.03;0.70;;;14.80;99.90;;;;;;4113198;28;20035;-61
2022/09/02 04:34:22;;;;;;;2.60;0.60;;;14.80;99.90;;;;;;4112794;28;20138;-63
2022/09/02 04:36:25;;;;;;;3.42;0.70;;;14.80;99.90;;;;;;4114266;28;20078;-62
2022/09/02 04:38:27;;;;;;;2.30;0.80;;;14.80;99.90;;;;;;4113155;28;20483;-63
2022/09/02 04:40:28;;;;;;;1.20;0.70;;;14.70;99.90;;;;;;4123277;28;20113;-62
2022/09/02 04:42:29;;;;;;;2.60;0.93;;;14.70;99.90;;;;;;4129039;28;20034;-62
2022/09/02 04:44:32;;;;;;;5.45;1.17;;;14.60;99.90;;;;;;4129905;28;20046;-63
2022/09/02 04:46:33;;;;;;;0.82;0.60;;;14.60;99.90;;;;;;4129245;28;20448;-62
2022/09/02 04:48:35;;;;;;;0.70;0.60;;;14.60;99.90;;;;;;4129940;28;20042;-62
2022/09/02 04:50:38;;;;;;;2.25;0.75;;;14.60;99.90;;;;;;4129408;28;20081;-62
2022/09/02 04:52:39;;;;;;;0.80;0.80;;;14.60;99.90;;;;;;4129941;28;20065;-62
2022/09/02 04:54:40;;;;;;;2.47;0.70;;;14.70;99.90;;;;;;4129571;28;20030;-62
2022/09/02 04:56:42;;;;;;;1.02;0.70;;;14.60;99.90;;;;;;4129097;28;20038;-62
2022/09/02 04:58:44;;;;;;;2.08;0.75;;;14.70;99.90;;;;;;4129776;28;20107;-62
2022/09/02 05:00:45;;;;;;;2.03;0.80;;;14.70;99.90;;;;;;4128472;28;20085;-62
2022/09/02 05:02:46;;;;;;;5.00;0.95;;;14.70;99.90;;;;;;4130045;28;20442;-63
2022/09/02 05:04:48;;;;;;;1.45;0.75;;;14.70;99.90;;;;;;4128581;28;20089;-63
2022/09/02 05:06:49;;;;;;;0.98;0.75;;;14.70;99.90;;;;;;4130184;28;20581;-63
2022/09/02 05:08:50;;;;;;;2.20;0.60;;;14.70;99.90;;;;;;4128229;28;20052;-62
2022/09/02 05:10:52;;;;;;;2.25;0.55;;;14.70;99.90;;;;;;4129560;28;20034;-63
2022/09/02 05:12:54;;;;;;;0.80;0.70;;;14.70;99.90;;;;;;4128690;28;20046;-63
2022/09/02 05:14:55;;;;;;;1.95;0.70;;;14.60;99.90;;;;;;4129287;28;20034;-62
2022/09/02 05:16:59;;;;;;;5.45;1.10;;;14.60;99.90;;;;;;4128377;28;20031;-64
2022/09/02 05:19:00;;;;;;;0.70;0.70;;;14.70;99.90;;;;;;4129650;28;20129;-64
2022/09/02 05:21:05;;;;;;;1.02;0.50;;;14.70;99.90;;;;;;4128847;28;20915;-62
2022/09/02 05:23:06;;;;;;;1.67;0.57;;;14.60;99.90;;;;;;4129342;28;20030;-62
2022/09/02 05:25:08;;;;;;;1.55;0.90;;;14.60;99.90;;;;;;4129217;28;20038;-62
2022/09/02 05:27:09;;;;;;;2.83;1.25;;;14.60;99.90;;;;;;4128746;28;20058;-63
2022/09/02 05:29:12;;;;;;;2.75;0.70;;;14.60;99.90;;;;;;4129270;28;20042;-63
2022/09/02 05:31:16;;;;;;;5.05;1.17;;;14.60;99.90;;;;;;4127280;28;20035;-63
2022/09/02 05:33:17;;;;;;;9.43;1.38;;;14.60;99.90;;;;;;4129332;28;20077;-64
2022/09/02 05:35:18;;;;;;;3.47;1.05;;;14.60;99.90;;;;;;4128278;28;20034;-63
2022/09/02 05:37:19;;;;;;;5.07;1.10;;;14.60;99.90;;;;;;4129572;28;20034;-63
2022/09/02 05:39:20;;;;;;;4.22;1.02;;;14.60;99.90;;;;;;4128484;28;20101;-63
2022/09/02 05:41:23;;;;;;;5.75;1.98;;;14.60;99.90;;;;;;4127912;28;20438;-64
2022/09/02 05:43:25;;;;;;;2.58;0.95;;;14.60;99.90;;;;;;4127818;28;20030;-63
2022/09/02 05:45:26;;;;;;;1.95;0.88;;;14.60;99.90;;;;;;4129425;28;20050;-64
2022/09/02 05:47:27;;;;;;;1.52;0.70;;;14.60;99.90;;;;;;4128361;28;20089;-64
2022/09/02 05:49:28;;;;;;;3.60;1.02;;;14.70;99.90;;;;;;4129039;28;20035;-63
2022/09/02 05:51:31;;;;;;;2.50;1.13;;;14.60;99.90;;;;;;4128370;28;20038;-63
2022/09/02 05:53:32;;;;;;;0.73;0.73;;;14.60;99.90;;;;;;4129304;28;20089;-63
2022/09/02 05:55:34;;;;;;;7.25;1.13;;;14.70;99.90;;;;;;4128551;28;20022;-63
2022/09/02 05:57:35;;;;;;;1.95;1.23;;;14.70;99.90;;;;;;4127943;28;20030;-64
2022/09/02 05:59:41;;;;;;;1.27;1.00;;;14.60;99.90;;;;;;4128428;28;20108;-63
2022/09/02 06:01:42;;;;;;;2.17;1.40;;;14.60;99.90;;;;;;4127986;28;20076;-63
2022/09/02 06:03:43;;;;;;;1.80;0.98;;;14.60;99.90;;;;;;4128953;28;20118;-62
2022/09/02 06:05:56;;;;;;;1.63;1.30;;;14.60;99.90;;;;;;4127658;28;20030;-63
2022/09/02 06:07:57;;;;;;;3.75;1.17;;;14.60;99.90;;;;;;4128936;28;20026;-63
2022/09/02 06:09:58;;;;;;;1.65;1.10;;;14.60;99.90;;;;;;4127584;28;20022;-63
2022/09/02 06:11:59;;;;;;;2.42;1.05;;;14.60;99.90;;;;;;4128937;28;20084;-63
2022/09/02 06:14:00;;;;;;;3.95;1.52;;;14.70;99.90;;;;;;4127639;28;20055;-66
2022/09/02 06:16:02;;;;;;;4.72;1.75;;;14.70;99.90;;;;;;4129008;28;20026;-63
2022/09/02 06:18:03;;;;;;;3.00;1.20;;;14.70;99.90;;;;;;4127303;28;20065;-63
2022/09/02 06:20:04;;;;;;;3.58;1.35;;;14.60;99.90;;;;;;4127462;28;20038;-63
2022/09/02 06:22:06;;;;;;;5.82;1.30;;;14.50;99.90;;;;;;4127670;28;20073;-63
2022/09/02 06:24:09;;;;;;;2.22;1.00;;;14.50;99.90;;;;;;4127350;28;20073;-63
2022/09/02 06:26:12;;;;;;;2.30;1.30;;;14.50;99.90;;;;;;4127477;28;20014;-62
2022/09/02 06:28:14;;;;;;;3.10;1.35;;;14.40;99.90;;;;;;4127904;28;20038;-63
2022/09/02 06:30:15;;;;;;;2.10;1.02;;;14.40;99.90;;;;;;4127506;28;20550;-63
2022/09/02 06:32:16;;;;;;;1.30;1.20;;;14.40;99.90;;;;;;4127910;28;20034;-63
2022/09/02 06:34:20;;;;;;;2.97;1.10;;;14.50;99.90;;;;;;4127963;28;20421;-63
2022/09/02 06:36:23;;;;;;;3.08;1.63;;;14.50;99.90;;;;;;4127846;28;20074;-63
2022/09/02 06:38:24;;;;;;;4.65;1.70;;;14.40;99.90;;;;;;4128212;28;20034;-62
2022/09/02 06:40:26;;;;;;;4.47;1.55;;;14.40;99.90;;;;;;4127401;28;20042;-64
2022/09/02 06:42:27;;;;;;;2.15;1.60;;;14.40;99.90;;;;;;4128263;28;20047;-63
2022/09/02 06:44:28;;;;;;;2.53;2.17;;;14.30;99.90;;;;;;4127038;28;20480;-63
2022/09/02 06:46:33;;;;;;;2.83;1.60;;;14.30;99.90;;;;;;4128577;28;20038;-62
2022/09/02 06:48:35;;;;;;;2.30;1.40;;;14.30;99.90;;;;;;4127127;28;20418;-63
2022/09/02 06:50:44;;;;;;;3.33;2.20;;;14.30;99.90;;;;;;4128326;28;20029;-63
2022/09/02 06:52:45;;;;;;;2.15;1.52;;;14.30;99.90;;;;;;4127507;28;20080;-62
2022/09/02 06:54:47;;;;;;;1.75;1.40;;;14.30;99.90;;;;;;4128048;28;20085;-63
2022/09/02 06:56:49;;;;;;;4.47;1.88;;;14.30;99.90;;;;;;4126933;28;20487;-65
2022/09/02 06:58:51;;;;;;;4.72;2.10;;;14.30;99.90;;;;;;4127932;28;20038;-63
2022/09/02 07:00:53;;;;;;;5.18;1.90;;;14.30;99.90;;;;;;4127138;28;20097;-62
2022/09/02 07:05:16;;;;;;;2.38;1.65;;;14.30;99.90;;;;;;4126624;28;20042;-62
2022/09/02 07:07:18;;;;;;;1.70;1.40;;;14.30;99.90;;;;;;4127675;28;20038;-62
2022/09/02 07:09:29;;;;;;;2.45;1.92;;;14.30;99.90;;;;;;4126581;28;20038;-63
2022/09/02 07:11:31;;;;;;;3.20;1.73;;;14.30;99.90;;;;;;4127769;28;20022;-62
2022/09/02 07:13:33;;;;;;;4.68;2.22;;;14.30;99.90;;;;;;4126955;28;20044;-62
2022/09/02 07:15:34;;;;;;;2.22;1.52;;;14.30;99.90;;;;;;4126958;28;20459;-62
2022/09/02 07:17:35;;;;;;;1.67;1.35;;;14.30;99.90;;;;;;4127121;28;20034;-62
2022/09/02 07:19:37;;;;;;;1.80;1.70;;;14.30;99.90;;;;;;4126834;28;20030;-62
2022/09/02 07:21:40;;;;;;;3.85;2.00;;;14.30;99.90;;;;;;4127562;28;20401;-62
2022/09/02 07:23:41;;;;;;;3.47;1.90;;;14.30;99.90;;;;;;4126893;28;20430;-63
2022/09/02 07:25:42;;;;;;;3.10;1.90;;;14.30;99.90;;;;;;4127874;28;20096;-62
2022/09/02 07:27:44;;;;;;;1.85;1.73;;;14.30;99.90;;;;;;4126931;28;20046;-62
2022/09/02 07:29:47;;;;;;;2.75;1.83;;;14.30;99.90;;;;;;4127784;28;20034;-62
2022/09/02 07:31:49;;;;;;;2.97;2.58;;;14.30;99.90;;;;;;4126351;28;20026;-64
2022/09/02 07:33:50;;;;;;;2.35;2.13;;;14.30;99.90;;;;;;4127956;28;20780;-62
2022/09/02 07:35:51;;;;;;;6.15;2.92;;;14.40;99.90;;;;;;4126644;28;20104;-62
2022/09/02 07:37:53;;;;;;;2.53;2.00;;;14.40;99.90;;;;;;4127902;28;20038;-63
2022/09/02 07:39:55;;;;;;;2.25;2.05;;;14.40;99.90;;;;;;4126786;28;20143;-62
2022/09/02 07:41:56;;;;;;;2.72;2.00;;;14.50;99.90;;;;;;4127715;28;20084;-63
2022/09/02 07:43:57;;;;;;;2.05;1.90;;;14.40;99.90;;;;;;4126494;28;20038;-62
2022/09/02 07:46:00;;;;;;;7.05;2.10;;;14.40;99.90;;;;;;4127272;28;20030;-62
2022/09/02 07:48:01;;;;;;;3.38;2.55;;;14.50;99.90;;;;;;4126810;28;20455;-63
2022/09/02 07:50:05;;;;;;;2.65;2.05;;;14.50;99.90;;;;;;4127056;28;20042;-63
2022/09/02 07:52:06;;;;;;;3.90;2.50;;;14.50;99.90;;;;;;4127236;28;20034;-63
2022/09/02 07:54:09;;;;;;;5.25;3.20;;;14.50;99.90;;;;;;4127147;28;20076;-63
2022/09/02 07:56:12;;;;;;;3.50;3.03;;;14.50;99.90;;;;;;4127531;28;20026;-62
2022/09/02 07:58:15;;;;;;;7.13;4.28;;;14.50;99.90;;;;;;4126385;28;20080;-63
2022/09/02 08:00:18;;;;;;;4.75;2.92;;;14.50;99.90;;;;;;4127745;28;20038;-62
2022/09/02 08:02:19;;;;;;;3.58;3.08;;;14.50;99.90;;;;;;4126200;28;20462;-64
2022/09/02 08:04:22;;;;;;;3.05;2.15;;;14.50;99.90;;;;;;4127572;28;20030;-63
2022/09/02 08:06:26;;;;;;;2.22;1.92;;;14.50;99.90;;;;;;4126396;28;20034;-64
2022/09/02 08:08:27;;;;;;;2.75;2.55;;;14.50;99.90;;;;;;4127478;28;20030;-63
2022/09/02 08:10:29;;;;;;;3.38;2.92;;;14.50;99.90;;;;;;4126329;28;20085;-64
2022/09/02 08:12:30;;;;;;;3.78;3.00;;;14.50;99.90;;;;;;4127670;28;20026;-63
2022/09/02 08:14:32;;;;;;;3.65;2.80;;;14.50;99.90;;;;;;4126129;28;20038;-63
2022/09/02 08:16:33;;;;;;;3.63;2.72;;;14.50;99.90;;;;;;4127328;28;20054;-63
2022/09/02 08:18:34;;;;;;;2.95;2.25;;;14.50;99.90;;;;;;4126566;28;20034;-63
2022/09/02 08:20:35;;;;;;;3.47;2.15;;;14.50;99.90;;;;;;4127156;28;20026;-62
2022/09/02 08:22:37;;;;;;;2.83;2.63;;;14.50;99.90;;;;;;4129365;28;20047;-63
2022/09/02 08:24:38;;;;;;;2.95;2.53;;;14.40;99.90;;;;;;4128445;28;20034;-70
2022/09/02 08:26:39;;;;;;;3.60;2.70;;;14.50;99.90;;;;;;4129904;28;20424;-63
2022/09/02 08:28:40;;;;;;;3.30;2.60;;;14.50;99.90;;;;;;4129439;28;20089;-63
2022/09/02 08:30:41;;;;;;;2.92;2.45;;;14.50;99.90;;;;;;4130096;28;20557;-64
2022/09/02 08:32:42;;;;;;;3.60;2.35;;;14.50;99.90;;;;;;4129276;28;20030;-63
2022/09/02 08:34:44;;;;;;;2.90;2.60;;;14.50;99.90;;;;;;4130525;28;20038;-62
2022/09/02 08:36:45;;;;;;;3.00;2.53;;;14.50;99.90;;;;;;4129203;28;20422;-63
2022/09/02 08:38:46;;;;;;;3.03;2.17;;;14.50;99.90;;;;;;4130478;28;20121;-62
2022/09/02 08:40:49;;;;;;;4.55;2.90;;;14.50;99.90;;;;;;4129063;28;20072;-62
2022/09/02 08:42:54;;;;;;;4.43;3.70;;;14.50;99.90;;;;;;4130070;28;20060;-63
2022/09/02 08:45:05;;;;;;;6.40;4.75;;;14.50;99.90;;;;;;4128681;28;21073;-63
2022/09/02 08:47:17;;;;;;;5.78;3.55;;;14.50;99.90;;;;;;4130173;28;20043;-64
2022/09/02 08:49:33;;;;;;;5.38;4.05;;;14.60;99.90;;;;;;4128688;28;20034;-63
2022/09/02 08:51:36;;;;;;;3.65;2.85;;;14.70;99.90;;;;;;4130091;28;20046;-62
2022/09/02 08:53:51;;;;;;;5.75;3.20;;;14.70;99.90;;;;;;4128738;28;20057;-62
2022/09/02 08:55:54;;;;;;;4.50;3.45;;;14.70;99.90;;;;;;4129816;28;20030;-62
2022/09/02 08:57:56;;;;;;;3.90;3.20;;;14.70;99.90;;;;;;4128638;28;20038;-62
2022/09/02 09:00:00;;;;;;;2.90;2.65;;;14.70;99.90;;;;;;4129715;28;20047;-62
2022/09/02 09:02:21;;;;;;;3.35;2.05;;;14.70;99.90;;;;;;4128476;28;20031;-62
2022/09/02 09:04:22;;;;;;;4.07;3.45;;;14.70;99.90;;;;;;4129635;28;20022;-63
2022/09/02 09:06:44;;;;;;;4.43;3.35;;;14.70;99.90;;;;;;4128847;28;20110;-62
2022/09/02 09:08:54;;;;;;;3.83;3.03;;;14.70;99.90;;;;;;4129759;28;20034;-63
2022/09/02 09:11:04;;;;;;;3.85;3.15;;;14.70;99.90;;;;;;4128516;28;20042;-62
2022/09/02 09:13:45;;;;;;;4.75;3.88;;;14.70;99.90;;;;;;4129416;28;20483;-63
2022/09/02 09:16:16;;;;;;;4.07;3.63;;;14.80;99.90;;;;;;4128326;28;20137;-62
2022/09/02 09:18:35;;;;;;;4.28;3.15;;;14.80;99.90;;;;;;4128229;28;20046;-63
2022/09/02 09:20:42;;;;;;;4.20;3.30;;;14.70;99.90;;;;;;4128425;28;20026;-62
2022/09/02 09:22:43;;;;;;;2.95;2.60;;;14.70;99.90;;;;;;4129275;28;20120;-63
2022/09/02 09:24:46;;;;;;;3.38;2.50;;;14.70;99.90;;;;;;4128479;28;20092;-63
2022/09/02 09:26:47;;;;;;;2.83;2.60;;;14.70;99.90;;;;;;4129519;28;20413;-63
2022/09/02 09:28:49;;;;;;;2.83;2.20;;;14.70;99.90;;;;;;4127764;28;20430;-63
2022/09/02 09:30:50;;;;;;;3.13;2.40;;;14.70;99.90;;;;;;4129119;28;20073;-63
2022/09/02 09:32:56;;;;;;;4.03;2.72;;;14.70;99.90;;;;;;4127056;28;20042;-63
2022/09/02 09:35:01;;;;;;;3.75;2.83;;;14.70;99.90;;;;;;4128172;28;20042;-63
2022/09/02 09:37:03;;;;;;;3.55;2.75;;;14.70;99.90;;;;;;4128086;28;20703;-62
2022/09/02 09:39:22;;;;;;;3.47;2.85;;;14.70;99.90;;;;;;4129615;28;20070;-63
2022/09/02 09:41:23;;;;;;;3.33;2.70;;;14.70;99.90;;;;;;4127776;28;20026;-64
2022/09/02 09:43:29;;;;;;;5.40;3.17;;;14.80;99.90;;;;;;4128774;28;20533;-63
2022/09/02 09:45:36;;;;;;;7.20;3.50;;;14.80;99.90;;;;;;4128096;28;20026;-64
2022/09/02 09:47:38;;;;;;;5.55;3.72;;;14.80;99.90;;;;;;4129165;28;20031;-63
2022/09/02 09:49:39;;;;;;;4.85;4.13;;;14.80;99.90;;;;;;4128099;28;20430;-63
2022/09/02 09:51:53;;;;;;;6.15;4.15;;;14.80;99.90;;;;;;4129007;28;20069;-64
2022/09/02 09:54:14;;;;;;;5.90;3.92;;;14.80;99.90;;;;;;4128193;28;20093;-63
2022/09/02 09:56:15;;;;;;;3.22;2.92;;;14.80;99.90;;;;;;4129107;28;20089;-63
2022/09/02 09:58:18;;;;;;;4.38;2.80;;;14.80;99.90;;;;;;4127494;28;20026;-63
2022/09/02 10:00:40;;;;;;;3.00;2.65;;;14.80;99.90;;;;;;4128459;28;20030;-62
2022/09/02 10:02:50;;;;;;;4.55;2.97;;;14.80;99.90;;;;;;4127662;28;20089;-62
2022/09/02 10:04:52;;;;;;;;;;;14.80;99.90;;;;;;4129252;28;20092;-62
2022/09/02 10:06:53;;;;;;;5.50;2.72;;;14.80;99.90;;;;;;4127538;28;19910;-62
2022/09/02 10:08:58;;;;;;;7.25;3.65;;;14.80;99.90;;;;;;4128729;28;20085;-62
2022/09/02 10:11:04;;;;;;;4.38;3.90;;;14.80;99.90;;;;;;4127966;28;20113;-63
2022/09/02 10:13:32;;;;;;;5.20;4.65;;;14.80;99.90;;;;;;4128337;28;20046;-62
2022/09/02 10:15:49;;;;;;;12.32;6.28;;;14.80;99.90;;;;;;4127674;28;20046;-61
2022/09/02 10:17:54;;;;;;;12.77;7.65;;;14.90;99.90;;;;;;4128615;28;20038;-62
2022/09/02 10:20:21;;;;;;;6.05;4.93;;;14.90;99.90;;;;;;4127782;28;20038;-62
2022/09/02 10:22:49;;;;;;;5.82;4.10;;;14.90;99.90;;;;;;4128093;28;20125;-62
2022/09/02 10:24:54;;;;;;;4.93;3.05;;;14.90;99.90;;;;;;4127609;28;20038;-62
2022/09/02 10:26:58;;;;;;;3.80;3.20;;;14.90;99.90;;;;;;4128770;28;20073;-62
2022/09/02 10:29:11;;;;;;;7.40;3.58;;;14.90;99.90;;;;;;4127161;28;20576;-62
2022/09/02 10:31:22;;;;;;;5.15;3.45;;;14.90;99.90;;;;;;4128671;28;20479;-62
2022/09/02 10:33:40;;;;;;;5.55;3.65;;;14.90;99.90;;;;;;4127192;28;20050;-62
2022/09/02 10:36:02;;;;;;;3.20;2.90;;;14.90;99.90;;;;;;4128225;28;20770;-61
2022/09/02 10:38:28;;;;;;;4.35;3.45;;;14.90;99.90;;;;;;4127242;28;20049;-62
2022/09/02 10:40:51;;;;;;;4.72;3.40;;;14.90;99.90;;;;;;4128456;28;20042;-64
2022/09/02 10:43:06;;;;;;;4.97;4.40;;;15.00;99.90;;;;;;4126978;28;20034;-62
2022/09/02 10:45:09;;;;;;;4.18;3.70;;;15.00;99.90;;;;;;4127293;28;20058;-62
2022/09/02 10:47:24;;;;;;;9.20;6.05;;;15.00;99.90;;;;;;4127050;28;20030;-63